createdAt,value
2022-07-29T00:01:03.311Z,12.11
2022-07-29T00:06:07.018Z,12.03
2022-07-29T00:11:10.601Z,11.98
2022-07-29T00:16:14.607Z,11.95
2022-07-29T00:21:18.334Z,11.96
2022-07-29T00:26:21.885Z,11.99
2022-07-29T00:31:25.378Z,11.96
2022-07-29T00:36:29.387Z,11.90
2022-07-29T00:41:33.055Z,11.76
2022-07-29T00:46:37.416Z,11.66
2022-07-29T00:51:41.181Z,11.65
2022-07-29T00:56:45.619Z,11.59
2022-07-29T01:01:49.216Z,11.55
2022-07-29T01:06:53.331Z,11.62
2022-07-29T01:11:57.059Z,11.63
2022-07-29T01:17:07.286Z,11.65
2022-07-29T01:22:44.136Z,11.61
2022-07-29T01:28:19.231Z,11.49
2022-07-29T01:33:47.548Z,11.29
2022-07-29T01:39:01.108Z,11.24
2022-07-29T01:44:14.667Z,11.25
2022-07-29T01:49:25.804Z,11.25
2022-07-29T01:54:32.530Z,11.17
2022-07-29T01:59:39.016Z,11.10
2022-07-29T02:04:47.115Z,11.05
2022-07-29T02:09:53.534Z,11.02
2022-07-29T02:15:02.715Z,11.03
2022-07-29T02:20:08.521Z,10.94
2022-07-29T02:25:14.380Z,10.79
2022-07-29T02:30:20.025Z,10.66
2022-07-29T02:35:24.471Z,10.59
2022-07-29T02:40:28.127Z,10.61
2022-07-29T02:45:32.623Z,10.62
2022-07-29T02:50:45.999Z,10.60
2022-07-29T02:56:03.363Z,10.57
2022-07-29T03:01:21.623Z,10.48
2022-07-29T03:06:38.288Z,10.37
2022-07-29T03:11:49.432Z,10.31
2022-07-29T03:16:54.818Z,10.30
2022-07-29T03:21:59.388Z,10.36
2022-07-29T03:27:04.722Z,10.35
2022-07-29T03:32:09.090Z,10.36
2022-07-29T03:37:12.760Z,10.38
2022-07-29T03:42:21.224Z,10.44
2022-07-29T03:47:50.069Z,10.57
2022-07-29T03:52:53.046Z,10.87
2022-07-29T03:57:58.909Z,11.35
2022-07-29T04:03:05.337Z,12.14
2022-07-29T04:08:14.239Z,12.31
2022-07-29T04:13:18.119Z,12.51
2022-07-29T04:18:21.643Z,12.80
2022-07-29T04:23:25.973Z,13.23
2022-07-29T04:28:30.290Z,13.66
2022-07-29T04:33:34.826Z,14.12
2022-07-29T04:38:39.340Z,14.36
2022-07-29T04:43:43.207Z,14.51
2022-07-29T04:48:51.002Z,14.80
2022-07-29T04:53:54.760Z,15.61
2022-07-29T04:58:58.201Z,16.05
2022-07-29T05:04:01.830Z,16.45
2022-07-29T05:09:06.123Z,16.63
2022-07-29T05:14:10.407Z,16.58
2022-07-29T05:19:14.938Z,16.66
2022-07-29T05:24:19.751Z,18.30
2022-07-29T05:29:44.070Z,21.73
2022-07-29T05:34:51.137Z,26.15
2022-07-29T05:39:56.659Z,29.79
2022-07-29T05:45:01.406Z,32.35
2022-07-29T05:50:05.960Z,34.38
2022-07-29T05:55:11.071Z,36.10
2022-07-29T06:00:15.793Z,37.54
2022-07-29T06:05:20.911Z,37.89
2022-07-29T06:10:27.098Z,36.85
2022-07-29T06:15:32.118Z,37.16
2022-07-29T06:20:40.316Z,37.18
2022-07-29T06:25:45.199Z,37.11
2022-07-29T06:30:49.326Z,36.16
2022-07-29T06:35:55.109Z,35.80
2022-07-29T06:41:03.875Z,34.45
2022-07-29T06:46:12.424Z,33.38
2022-07-29T06:51:22.390Z,32.46
2022-07-29T06:56:29.552Z,31.38
2022-07-29T07:01:34.225Z,30.70
2022-07-29T07:06:39.597Z,30.05
2022-07-29T07:11:43.847Z,30.89
2022-07-29T07:16:52.681Z,32.41
2022-07-29T07:22:00.297Z,33.34
2022-07-29T07:27:06.619Z,33.50
2022-07-29T07:32:10.641Z,33.66
2022-07-29T07:37:16.596Z,33.08
2022-07-29T07:42:22.269Z,32.04
2022-07-29T07:47:27.951Z,32.01
2022-07-29T07:52:32.688Z,31.82
2022-07-29T07:57:37.009Z,31.77
2022-07-29T08:02:43.279Z,30.90
2022-07-29T08:07:49.041Z,30.07
2022-07-29T08:12:53.010Z,29.60
2022-07-29T08:17:56.875Z,29.53
2022-07-29T08:23:00.767Z,29.42
2022-07-29T08:28:04.375Z,29.11
2022-07-29T08:33:08.717Z,28.66
2022-07-29T08:38:13.094Z,28.51
2022-07-29T08:43:16.983Z,28.71
2022-07-29T08:48:23.977Z,29.07
2022-07-29T08:53:30.033Z,29.24
2022-07-29T08:58:37.144Z,29.13
2022-07-29T09:03:45.764Z,29.02
2022-07-29T09:08:50.879Z,28.98
2022-07-29T09:13:55.733Z,28.85
2022-07-29T09:19:00.894Z,28.75
2022-07-29T09:24:15.021Z,28.96
2022-07-29T09:29:21.461Z,28.63
2022-07-29T09:34:29.842Z,28.46
2022-07-29T09:39:36.691Z,28.53
2022-07-29T09:44:49.865Z,28.47
2022-07-29T09:49:55.336Z,28.33
2022-07-29T09:55:09.907Z,28.74
2022-07-29T10:00:19.647Z,28.77
2022-07-29T10:05:36.255Z,28.70
2022-07-29T10:10:43.067Z,28.77
2022-07-29T10:15:47.747Z,28.96
2022-07-29T10:20:52.746Z,28.88
2022-07-29T10:25:56.765Z,28.70
2022-07-29T10:31:24.728Z,28.56
2022-07-29T10:36:59.586Z,28.57
2022-07-29T10:42:29.580Z,28.58
2022-07-29T10:47:38.801Z,28.72
2022-07-29T10:52:58.003Z,28.86
2022-07-29T10:58:19.774Z,28.93
2022-07-29T11:03:50.711Z,28.77
2022-07-29T11:09:25.676Z,28.42
2022-07-29T11:15:00.473Z,28.06
2022-07-29T11:20:46.767Z,28.17
2022-07-29T11:26:19.098Z,28.52
2022-07-29T11:31:44.250Z,28.88
2022-07-29T11:37:14.394Z,29.31
2022-07-29T11:42:28.352Z,29.80
2022-07-29T11:47:42.261Z,29.70
2022-07-29T11:52:49.531Z,29.50
2022-07-29T11:58:04.188Z,29.56
2022-07-29T12:03:11.989Z,29.54
2022-07-29T12:08:23.335Z,29.44
2022-07-29T12:13:41.225Z,28.87
2022-07-29T12:19:00.617Z,28.68
2022-07-29T12:24:09.694Z,28.74
2022-07-29T12:29:33.850Z,29.11
2022-07-29T12:34:42.746Z,29.39
2022-07-29T12:39:47.699Z,29.78
2022-07-29T12:44:52.962Z,29.72
2022-07-29T12:50:23.254Z,29.27
2022-07-29T12:55:41.831Z,29.02
2022-07-29T13:00:45.723Z,28.72
2022-07-29T13:05:52.323Z,28.55
2022-07-29T13:10:57.697Z,28.52
2022-07-29T13:16:10.551Z,28.50
2022-07-29T13:21:18.755Z,28.42
2022-07-29T13:26:23.382Z,28.31
2022-07-29T13:31:28.618Z,28.27
2022-07-29T13:36:33.848Z,28.28
2022-07-29T13:41:39.397Z,28.21
2022-07-29T13:46:46.734Z,28.15
2022-07-29T13:51:51.784Z,28.05
2022-07-29T13:56:58.122Z,27.98
2022-07-29T14:02:01.569Z,27.84
2022-07-29T14:07:05.477Z,27.68
2022-07-29T14:12:09.656Z,27.51
2022-07-29T14:17:12.975Z,27.40
2022-07-29T14:22:16.744Z,27.35
2022-07-29T14:27:20.847Z,27.31
2022-07-29T14:32:42.067Z,27.27
2022-07-29T14:37:46.486Z,27.23
2022-07-29T14:42:50.563Z,27.09
2022-07-29T14:47:57.355Z,26.94
2022-07-29T14:53:02.655Z,26.82
2022-07-29T14:58:12.119Z,26.74
2022-07-29T15:03:22.839Z,26.66
2022-07-29T15:08:29.516Z,26.58
2022-07-29T15:13:33.078Z,26.50
2022-07-29T15:18:39.056Z,26.46
2022-07-29T15:23:42.609Z,26.41
2022-07-29T15:28:46.365Z,26.35
2022-07-29T15:33:54.423Z,26.33
2022-07-29T15:39:01.208Z,26.34
2022-07-29T15:44:05.462Z,26.37
2022-07-29T15:49:10.455Z,26.36
2022-07-29T15:54:14.203Z,26.28
2022-07-29T15:59:22.593Z,26.14
2022-07-29T16:04:26.927Z,26.01
2022-07-29T16:09:31.374Z,25.91
2022-07-29T16:14:35.236Z,25.78
2022-07-29T16:19:41.783Z,25.66
2022-07-29T16:24:45.374Z,25.58
2022-07-29T16:29:54.395Z,25.55
2022-07-29T16:35:06.687Z,25.52
2022-07-29T16:40:11.653Z,25.44
2022-07-29T16:45:17.991Z,25.35
2022-07-29T16:50:24.845Z,25.21
2022-07-29T16:55:29.273Z,25.07
2022-07-29T17:00:32.930Z,24.98
2022-07-29T17:05:52.569Z,24.86
2022-07-29T17:10:58.137Z,24.73
2022-07-29T17:16:02.199Z,24.56
2022-07-29T17:21:06.961Z,24.42
2022-07-29T17:26:10.974Z,24.28
2022-07-29T17:31:16.330Z,24.13
2022-07-29T17:36:24.840Z,24.02
2022-07-29T17:41:29.029Z,23.95
2022-07-29T17:46:32.632Z,23.87
2022-07-29T17:51:39.815Z,23.77
2022-07-29T17:56:46.225Z,23.62
2022-07-29T18:01:50.789Z,23.45
2022-07-29T18:06:54.593Z,23.26
2022-07-29T18:11:58.873Z,23.08
2022-07-29T18:17:02.550Z,22.93
2022-07-29T18:22:07.885Z,22.78
2022-07-29T18:27:12.113Z,22.67
2022-07-29T18:32:16.118Z,22.58
2022-07-29T18:37:20.131Z,22.48
2022-07-29T18:42:43.756Z,22.39
2022-07-29T18:47:49.593Z,22.29
2022-07-29T18:52:53.332Z,22.20
2022-07-29T18:57:57.885Z,22.11
2022-07-29T19:03:03.796Z,22.02
2022-07-29T19:08:13.134Z,21.95
2022-07-29T19:13:17.721Z,21.87
2022-07-29T19:18:21.724Z,21.80
2022-07-29T19:23:27.161Z,21.74
2022-07-29T19:28:48.833Z,21.67
2022-07-29T19:33:58.746Z,21.60
2022-07-29T19:39:02.691Z,21.54
2022-07-29T19:44:06.286Z,21.48
2022-07-29T19:49:10.761Z,21.40
2022-07-29T19:54:16.142Z,21.36
2022-07-29T19:59:19.490Z,21.33
2022-07-29T20:04:27.964Z,21.30
2022-07-29T20:09:31.682Z,21.26
2022-07-29T20:14:35.314Z,21.22
2022-07-29T20:19:39.122Z,21.18
2022-07-29T20:24:43.024Z,21.15
2022-07-29T20:29:48.738Z,21.12
2022-07-29T20:34:52.460Z,21.06
2022-07-29T20:39:56.802Z,21.04
2022-07-29T20:45:00.268Z,21.00
2022-07-29T20:50:04.657Z,20.96
2022-07-29T20:55:10.513Z,20.90
2022-07-29T21:00:19.301Z,20.83
2022-07-29T21:05:25.455Z,20.79
2022-07-29T21:10:30.052Z,20.73
2022-07-29T21:15:36.963Z,20.68
2022-07-29T21:20:41.628Z,20.59
2022-07-29T21:25:45.825Z,20.56
2022-07-29T21:30:54.953Z,20.48
2022-07-29T21:36:35.451Z,20.41
2022-07-29T21:41:30.627Z,20.38
2022-07-29T21:46:37.249Z,20.35
2022-07-29T21:51:41.722Z,20.28
2022-07-29T21:56:51.181Z,20.23
2022-07-29T22:02:01.182Z,20.20
2022-07-29T22:07:06.421Z,20.17
2022-07-29T22:12:12.514Z,20.14
2022-07-29T22:17:16.943Z,20.12
2022-07-29T22:22:20.685Z,20.11
2022-07-29T22:27:24.241Z,20.04
2022-07-29T22:32:27.776Z,20.00
2022-07-29T22:37:32.428Z,19.95
2022-07-29T22:42:40.910Z,19.90
2022-07-29T22:47:48.680Z,19.80
2022-07-29T22:52:53.178Z,19.71
2022-07-29T22:57:57.252Z,19.62
2022-07-29T23:03:01.768Z,19.47
2022-07-29T23:08:06.209Z,19.22
2022-07-29T23:13:11.754Z,19.01
2022-07-29T23:18:15.663Z,18.87
2022-07-29T23:23:20.518Z,18.64
2022-07-29T23:28:25.538Z,18.40
2022-07-29T23:33:30.041Z,18.22
2022-07-29T23:38:34.097Z,18.07
2022-07-29T23:43:39.339Z,17.96
2022-07-29T23:48:44.612Z,17.89
2022-07-29T23:53:53.450Z,17.80
2022-07-29T23:59:01.583Z,17.72
